Time;durP1;ratioP1;P1;durP2;ratioP2;P2;SDS_P1;SDS_P2;PMS_P1;PMS_P2;Temp;Humidity;BMP_temperature;BMP_pressure;BME280_temperature;BME280_humidity;BME280_pressure;Samples;Min_cycle;Max_cycle;Signal;HPM_P1;HPM_P2
2022/02/09 00:02:22;;;;;;;13.10;7.07;;;2.70;70.00;;;;;;6169564;23;20187;-83
2022/02/09 00:05:10;;;;;;;3.17;2.27;;;2.80;67.40;;;;;;6170270;23;20258;-82
2022/02/09 00:07:42;;;;;;;15.03;8.50;;;2.60;62.70;;;;;;6170407;23;20159;-84
2022/02/09 00:10:11;;;;;;;17.23;10.07;;;2.40;67.10;;;;;;6170055;23;20217;-80
2022/02/09 00:12:45;;;;;;;13.37;7.63;;;2.40;74.50;;;;;;6170562;23;20202;-80
2022/02/09 00:15:25;;;;;;;7.63;5.00;;;2.50;72.10;;;;;;6170768;23;20211;-81
2022/02/09 00:18:00;;;;;;;10.70;5.57;;;2.40;72.70;;;;;;6169426;23;20528;-84
2022/02/09 00:21:01;;;;;;;4.77;2.47;;;2.40;70.60;;;;;;6169396;23;20199;-81
2022/02/09 00:27:07;;;;;;;5.37;3.10;;;2.00;70.50;;;;;;6170889;23;20167;-81
2022/02/09 01:39:02;;;;;;;7.63;3.10;;;1.50;83.50;;;;;;5123377;27;20296;-81
2022/02/09 01:55:30;;;;;;;3.03;2.10;;;1.60;86.80;;;;;;5089490;28;20290;-82
2022/02/09 01:57:57;;;;;;;3.63;2.20;;;1.50;86.30;;;;;;5090260;28;20193;-82
2022/02/09 02:00:26;;;;;;;3.70;2.00;;;1.50;86.80;;;;;;5096709;28;20291;-82
2022/02/09 02:02:53;;;;;;;3.23;2.20;;;1.40;86.70;;;;;;5087819;28;20271;-81
2022/02/09 02:05:21;;;;;;;4.50;2.20;;;1.70;88.90;;;;;;5087369;28;20759;-81
2022/02/09 02:07:51;;;;;;;3.83;2.60;;;1.80;87.30;;;;;;5087444;28;20189;-81
2022/02/09 02:10:25;;;;;;;3.03;2.27;;;2.00;89.30;;;;;;5076330;28;20308;-82
2022/02/09 02:13:32;;;;;;;3.47;2.20;;;2.20;87.20;;;;;;5093761;28;20235;-84
2022/02/09 02:19:10;;;;;;;3.37;2.30;;;2.40;87.40;;;;;;5182466;27;20580;-83
2022/02/09 02:21:53;;;;;;;2.63;2.20;;;2.50;87.40;;;;;;5128884;28;20212;-81
2022/02/09 02:24:43;;;;;;;4.23;2.50;;;2.50;85.30;;;;;;5132876;27;20223;-81
2022/02/09 02:27:48;;;;;;;2.70;2.10;;;2.40;86.30;;;;;;5123355;27;20195;-82
2022/02/09 02:33:12;;;;;;;3.37;2.30;;;2.50;87.40;;;;;;5098492;28;20202;-82
2022/02/09 02:38:58;;;;;;;2.90;2.60;;;2.50;87.40;;;;;;5117538;28;20226;-82
2022/02/09 03:09:31;;;;;;;5.10;3.60;;;3.00;86.60;;;;;;5160337;27;20708;-85
2022/02/09 03:12:12;;;;;;;2.40;1.90;;;3.00;86.40;;;;;;5159845;27;20258;-81
2022/02/09 03:14:46;;;;;;;3.50;1.90;;;3.00;86.10;;;;;;5148893;27;20219;-81
2022/02/09 03:17:17;;;;;;;2.67;1.50;;;2.90;86.80;;;;;;5162433;27;20226;-81
2022/02/09 03:19:50;;;;;;;2.30;1.60;;;2.90;85.40;;;;;;5162976;27;20229;-82
2022/02/09 03:22:28;;;;;;;2.10;1.70;;;2.80;84.50;;;;;;5163517;27;20203;-81
2022/02/09 03:47:21;;;;;;;2.37;1.63;;;2.60;88.80;;;;;;5116568;28;20212;-83
2022/02/09 03:50:21;;;;;;;2.33;1.60;;;2.60;87.50;;;;;;5139600;27;20283;-84
2022/02/09 03:53:08;;;;;;;1.93;1.50;;;2.60;89.60;;;;;;5140127;27;20232;-83
2022/02/09 03:55:43;;;;;;;3.03;1.40;;;2.60;87.80;;;;;;5145418;27;20274;-81
2022/02/09 03:58:15;;;;;;;1.50;1.40;;;2.70;88.90;;;;;;5140975;27;20226;-82
2022/02/09 04:00:46;;;;;;;1.63;1.40;;;2.60;87.50;;;;;;5138818;27;20254;-86
2022/02/09 04:03:15;;;;;;;1.70;1.50;;;2.60;87.50;;;;;;5141529;27;20211;-81
2022/02/09 04:05:44;;;;;;;1.50;1.37;;;2.60;87.50;;;;;;5149441;27;20270;-84
2022/02/09 04:08:14;;;;;;;2.23;1.60;;;2.50;87.40;;;;;;5148257;27;20199;-81
2022/02/09 04:10:45;;;;;;;2.50;1.40;;;2.50;88.60;;;;;;5138445;27;20219;-82
2022/02/09 04:13:19;;;;;;;1.47;1.37;;;2.50;89.80;;;;;;5148539;27;20228;-86
2022/02/09 04:15:57;;;;;;;2.53;1.60;;;2.40;88.30;;;;;;5147657;27;20236;-81
2022/02/09 04:18:44;;;;;;;1.73;1.60;;;2.40;90.30;;;;;;5139404;27;20244;-81
2022/02/09 04:38:06;;;;;;;1.57;1.30;;;1.80;90.50;;;;;;5163981;27;20243;-81
2022/02/09 04:43:33;;;;;;;2.33;1.67;;;1.40;90.60;;;;;;5148137;27;20226;-81
2022/02/09 04:46:23;;;;;;;1.40;1.30;;;1.50;92.00;;;;;;5148231;27;20202;-81
2022/02/09 04:52:00;;;;;;;3.20;1.80;;;1.60;92.20;;;;;;5085839;28;20193;-81
2022/02/09 04:54:33;;;;;;;4.10;1.60;;;1.70;92.30;;;;;;5134074;27;20226;-82
2022/02/09 04:57:03;;;;;;;1.90;1.67;;;1.70;91.70;;;;;;5150171;27;20234;-81
2022/02/09 04:59:39;;;;;;;1.73;1.33;;;1.50;91.60;;;;;;5147977;27;20690;-81
2022/02/09 05:02:34;;;;;;;2.13;1.40;;;1.40;91.60;;;;;;5150271;27;20270;-81
2022/02/09 05:21:59;;;;;;;2.73;1.67;;;1.50;92.30;;;;;;5143765;27;20204;-81
2022/02/09 05:24:59;;;;;;;1.77;1.50;;;1.40;92.80;;;;;;5150325;27;20218;-81
2022/02/09 05:27:46;;;;;;;1.43;1.20;;;1.40;92.40;;;;;;5140778;27;20206;-81
2022/02/09 05:30:13;;;;;;;1.50;1.40;;;1.40;92.40;;;;;;5150780;27;20230;-81
2022/02/09 05:32:41;;;;;;;1.50;1.40;;;1.30;92.90;;;;;;5151531;27;20221;-84
2022/02/09 05:35:09;;;;;;;2.10;1.40;;;1.40;93.20;;;;;;5150444;27;20681;-81
2022/02/09 05:37:38;;;;;;;1.83;1.23;;;1.40;93.30;;;;;;5150532;27;20557;-83
2022/02/09 05:40:06;;;;;;;2.00;1.20;;;1.40;93.10;;;;;;5150863;27;20226;-80
2022/02/09 05:42:34;;;;;;;2.20;1.53;;;1.40;92.80;;;;;;5150921;27;20234;-81
2022/02/09 05:45:05;;;;;;;1.70;1.60;;;1.40;92.60;;;;;;5150879;27;20282;-81
2022/02/09 05:48:04;;;;;;;1.40;1.30;;;1.30;92.60;;;;;;5150389;27;20198;-81
2022/02/09 05:50:34;;;;;;;2.20;1.50;;;1.30;92.60;;;;;;5150240;27;20229;-81
2022/02/09 05:53:14;;;;;;;1.53;1.33;;;1.20;92.60;;;;;;5149960;27;20203;-81
2022/02/09 05:55:53;;;;;;;2.20;1.30;;;1.20;92.70;;;;;;5149703;27;20206;-81
2022/02/09 05:58:34;;;;;;;2.07;1.50;;;1.10;93.10;;;;;;5150626;27;20215;-81
2022/02/09 06:01:20;;;;;;;1.60;1.40;;;1.10;92.90;;;;;;5138184;27;20210;-83
2022/02/09 06:03:56;;;;;;;2.23;1.50;;;1.20;93.10;;;;;;5139910;27;20282;-82
2022/02/09 06:06:45;;;;;;;1.97;1.50;;;1.10;92.80;;;;;;5150112;27;20185;-81
2022/02/09 06:09:27;;;;;;;1.93;1.57;;;1.20;93.30;;;;;;5147540;27;20289;-82
2022/02/09 06:12:07;;;;;;;2.73;1.80;;;1.30;93.50;;;;;;5143022;27;20186;-81
2022/02/09 06:20:48;;;;;;;1.87;1.57;;;1.20;92.70;;;;;;5148554;28;20252;-84
2022/02/09 06:24:00;;;;;;;2.00;1.80;;;1.10;92.90;;;;;;5143898;27;20208;-85
2022/02/09 06:26:37;;;;;;;3.70;2.37;;;1.10;93.10;;;;;;5148005;28;20254;-83
2022/02/09 06:29:08;;;;;;;2.70;2.37;;;1.00;92.90;;;;;;5129193;27;20256;-83
2022/02/09 06:32:16;;;;;;;2.20;1.90;;;0.70;93.30;;;;;;5131791;28;20201;-82
2022/02/09 06:34:44;;;;;;;2.87;1.80;;;0.80;94.20;;;;;;5142024;27;20230;-84
2022/02/09 06:43:37;;;;;;;3.70;2.10;;;1.60;94.40;;;;;;5139202;27;20214;-84
2022/02/09 06:46:36;;;;;;;4.30;1.73;;;1.50;93.20;;;;;;5140885;28;20187;-83
2022/02/09 06:49:07;;;;;;;2.53;1.80;;;1.40;92.70;;;;;;5146326;27;20700;-83
2022/02/09 06:51:36;;;;;;;2.80;1.90;;;1.40;93.80;;;;;;5146565;28;20203;-83
2022/02/09 06:54:30;;;;;;;2.73;2.00;;;1.50;93.50;;;;;;5146748;27;20234;-84
2022/02/09 06:57:12;;;;;;;2.13;1.77;;;1.60;93.80;;;;;;5144740;28;20196;-84
2022/02/09 06:59:41;;;;;;;2.57;1.70;;;1.70;93.70;;;;;;5137615;27;20253;-83
2022/02/09 07:02:10;;;;;;;3.17;1.70;;;1.80;92.60;;;;;;5148022;28;20275;-82
2022/02/09 07:04:38;;;;;;;5.03;2.27;;;1.80;92.40;;;;;;5155774;27;20231;-83
2022/02/09 07:07:06;;;;;;;4.33;2.70;;;1.80;92.90;;;;;;5158621;27;20539;-82
2022/02/09 07:09:34;;;;;;;6.33;3.33;;;1.90;92.90;;;;;;5150371;27;20223;-82
2022/02/09 07:12:02;;;;;;;5.27;3.17;;;1.90;93.00;;;;;;5144161;27;20556;-84
2022/02/09 07:21:37;;;;;;;9.17;2.90;;;1.60;91.80;;;;;;5126950;28;20219;-84
2022/02/09 07:24:07;;;;;;;4.43;2.57;;;1.30;92.40;;;;;;5135634;27;20194;-84
2022/02/09 07:30:43;;;;;;;5.17;2.50;;;1.30;94.30;;;;;;5166916;27;20190;-83
2022/02/09 07:33:10;;;;;;;5.27;2.27;;;1.50;93.70;;;;;;5169927;27;20202;-83
2022/02/09 07:35:40;;;;;;;4.87;2.37;;;1.60;93.50;;;;;;5181127;27;20274;-82
2022/02/09 07:38:08;;;;;;;8.67;2.50;;;1.70;94.20;;;;;;5171678;27;20227;-82
2022/02/09 07:40:37;;;;;;;4.40;2.00;;;2.00;93.50;;;;;;5164598;27;20283;-83
2022/02/09 07:43:11;;;;;;;6.07;2.80;;;2.00;92.80;;;;;;5167027;27;20201;-82
2022/02/09 07:46:01;;;;;;;5.63;2.20;;;2.00;93.10;;;;;;5168195;27;20210;-82
2022/02/09 07:48:41;;;;;;;6.13;2.40;;;1.90;92.70;;;;;;5168883;27;20236;-83
2022/02/09 07:51:37;;;;;;;3.93;2.47;;;1.80;92.70;;;;;;5150461;27;20300;-82
2022/02/09 07:54:04;;;;;;;9.57;2.33;;;2.10;93.70;;;;;;5162759;27;20226;-84
2022/02/09 07:56:33;;;;;;;4.90;1.93;;;2.60;93.10;;;;;;5169520;27;20198;-82
2022/02/09 07:59:00;;;;;;;5.40;2.10;;;3.20;91.80;;;;;;5172296;27;20230;-80
2022/02/09 08:01:28;;;;;;;3.97;2.10;;;3.80;89.30;;;;;;5159687;27;20262;-82
2022/02/09 08:03:55;;;;;;;4.43;2.10;;;4.00;88.30;;;;;;5159066;27;20230;-80
2022/02/09 08:06:24;;;;;;;3.07;2.20;;;4.20;88.50;;;;;;5157491;27;20257;-81
2022/02/09 08:08:54;;;;;;;3.77;2.10;;;4.40;85.10;;;;;;5158622;27;20286;-80
2022/02/09 08:11:26;;;;;;;4.63;2.20;;;4.50;83.70;;;;;;5156672;27;20195;-80
2022/02/09 08:27:57;;;;;;;3.97;1.83;;;5.50;75.20;;;;;;5163267;27;20573;-82
2022/02/09 08:30:46;;;;;;;4.23;1.83;;;5.50;75.90;;;;;;5180569;27;20257;-82
2022/02/09 08:33:18;;;;;;;3.17;1.47;;;5.60;75.50;;;;;;5152244;27;20684;-83
2022/02/09 08:35:45;;;;;;;3.80;1.63;;;5.70;76.30;;;;;;5174372;27;20229;-84
2022/02/09 08:38:12;;;;;;;4.03;1.77;;;5.70;75.90;;;;;;5165071;27;20222;-84
2022/02/09 08:40:39;;;;;;;4.97;1.60;;;5.90;73.50;;;;;;5170566;27;20249;-83
2022/02/09 08:43:09;;;;;;;2.85;1.70;;;6.30;71.10;;;;;;5175782;27;20198;-82
2022/02/09 08:45:36;;;;;;;2.25;1.83;;;6.60;66.40;;;;;;5168295;27;20234;-83
2022/02/09 08:48:03;;;;;;;2.00;1.60;;;7.00;62.90;;;;;;5169327;27;20539;-84
2022/02/09 08:50:30;;;;;;;3.17;1.63;;;7.40;65.60;;;;;;5177789;27;20226;-82
2022/02/09 08:52:58;;;;;;;2.63;1.50;;;7.80;55.30;;;;;;5170549;27;20207;-85
2022/02/09 08:55:34;;;;;;;5.47;1.67;;;8.20;56.60;;;;;;5186659;27;20364;-82
2022/02/09 08:58:05;;;;;;;6.68;1.67;;;8.50;51.20;;;;;;5175343;27;20190;-83
2022/02/09 09:00:37;;;;;;;2.88;1.52;;;8.70;49.10;;;;;;5173156;27;20226;-85
2022/02/09 09:03:11;;;;;;;2.20;1.40;;;8.80;47.40;;;;;;5170603;27;20798;-85
2022/02/09 09:05:46;;;;;;;1.67;1.33;;;9.10;49.00;;;;;;5170268;27;20224;-82
2022/02/09 10:01:50;;;;;;;2.05;1.65;;;21.10;11.70;;;;;;5141276;27;20209;-80
2022/02/09 10:04:38;;;;;;;3.50;1.83;;;21.00;11.60;;;;;;5149544;27;20229;-81
2022/02/09 10:35:23;;;;;;;1.63;1.50;;;19.30;14.10;;;;;;5151570;27;20230;-78
2022/02/09 10:37:50;;;;;;;1.83;1.50;;;19.50;11.70;;;;;;5145582;27;20198;-81
2022/02/09 10:40:40;;;;;;;1.50;1.30;;;18.90;13.70;;;;;;5163952;27;20253;-80
2022/02/09 10:43:21;;;;;;;2.17;1.30;;;18.40;13.30;;;;;;5144223;27;20201;-82
2022/02/09 10:45:50;;;;;;;1.35;1.25;;;19.10;12.80;;;;;;5171903;27;20217;-80
2022/02/09 10:48:32;;;;;;;2.92;1.67;;;18.10;13.00;;;;;;5157043;27;20245;-80
2022/02/09 10:51:16;;;;;;;2.15;1.48;;;17.60;14.20;;;;;;5153134;27;20653;-80
2022/02/09 10:54:02;;;;;;;5.32;1.63;;;17.10;16.80;;;;;;5160969;27;20251;-82
2022/02/09 10:56:33;;;;;;;1.40;1.30;;;17.20;16.20;;;;;;5156985;27;20683;-80
2022/02/09 10:59:01;;;;;;;3.42;1.50;;;18.20;13.50;;;;;;5155267;27;20234;-80
2022/02/09 11:01:28;;;;;;;3.88;1.70;;;17.90;14.30;;;;;;5155730;27;20208;-79
2022/02/09 11:03:56;;;;;;;6.60;1.90;;;17.10;15.40;;;;;;5155115;27;20234;-80
2022/02/09 11:06:27;;;;;;;2.30;1.75;;;17.20;14.80;;;;;;5159116;27;20205;-82
2022/02/09 11:08:54;;;;;;;1.50;1.40;;;16.80;15.00;;;;;;5172044;27;20226;-84
2022/02/09 11:11:22;;;;;;;3.40;1.48;;;17.00;15.50;;;;;;5163173;27;20195;-83
2022/02/09 11:13:51;;;;;;;1.70;1.60;;;17.60;15.00;;;;;;5160061;27;20226;-84
2022/02/09 11:16:19;;;;;;;3.22;1.50;;;17.40;14.60;;;;;;5162578;27;20210;-84
2022/02/09 11:18:48;;;;;;;2.78;1.20;;;17.20;15.10;;;;;;5160067;27;20229;-84
2022/02/09 11:21:15;;;;;;;1.42;1.33;;;17.40;16.30;;;;;;5175583;27;20213;-84
2022/02/09 11:23:49;;;;;;;3.70;1.40;;;17.20;15.00;;;;;;5167520;27;20230;-86
2022/02/09 11:26:38;;;;;;;4.70;1.10;;;16.40;17.80;;;;;;5172344;27;20197;-84
2022/02/09 11:29:45;;;;;;;1.67;1.20;;;15.10;21.20;;;;;;5152973;27;20231;-85
2022/02/09 11:43:08;;;;;;;2.95;1.27;;;13.10;24.50;;;;;;5164028;27;20193;-83
2022/02/09 11:46:19;;;;;;;2.92;1.48;;;12.70;24.80;;;;;;5148134;27;20229;-84
2022/02/09 11:49:31;;;;;;;1.45;1.30;;;12.50;25.70;;;;;;5157450;27;20255;-83
2022/02/09 11:52:19;;;;;;;2.58;1.33;;;12.50;25.70;;;;;;5156987;27;20194;-84
2022/02/09 11:55:10;;;;;;;1.83;1.35;;;12.30;25.60;;;;;;5148694;27;20247;-83
2022/02/09 12:00:57;;;;;;;1.27;1.17;;;12.10;25.40;;;;;;5173453;27;20247;-82
2022/02/09 12:10:22;;;;;;;4.75;1.42;;;11.90;25.20;;;;;;5180262;27;20250;-82
2022/02/09 12:13:04;;;;;;;3.45;1.45;;;11.80;25.10;;;;;;5158157;27;20205;-83
2022/02/09 12:18:37;;;;;;;2.70;1.50;;;11.90;26.40;;;;;;5163821;27;20190;-83
2022/02/09 12:21:16;;;;;;;2.13;1.30;;;11.90;27.20;;;;;;5165295;27;20213;-83
2022/02/09 12:23:46;;;;;;;2.22;1.10;;;11.90;27.40;;;;;;5165802;27;20246;-83
2022/02/09 12:26:17;;;;;;;1.00;1.00;;;12.00;27.10;;;;;;5166953;27;20728;-84
2022/02/09 12:28:53;;;;;;;2.35;1.25;;;12.10;26.50;;;;;;5168225;27;20222;-83
2022/02/09 12:31:23;;;;;;;3.05;1.08;;;12.20;26.60;;;;;;5185867;27;20186;-83
2022/02/09 12:33:51;;;;;;;1.02;0.93;;;12.20;25.50;;;;;;5165623;27;20702;-84
2022/02/09 12:36:21;;;;;;;2.38;1.10;;;12.10;25.40;;;;;;5155562;27;20210;-83
2022/02/09 12:38:51;;;;;;;2.40;1.20;;;12.00;27.40;;;;;;5162195;27;20254;-83
2022/02/09 12:41:19;;;;;;;0.73;0.70;;;11.80;25.20;;;;;;5165705;27;20201;-83
2022/02/09 12:43:52;;;;;;;1.02;1.00;;;11.80;26.50;;;;;;5160661;27;20727;-83
2022/02/09 12:46:20;;;;;;;1.48;1.13;;;11.80;27.10;;;;;;5174454;27;20676;-83
2022/02/09 12:48:48;;;;;;;1.95;1.10;;;11.80;28.00;;;;;;5149755;27;20257;-84
2022/02/09 12:51:28;;;;;;;0.98;0.90;;;11.70;28.60;;;;;;5166627;27;20191;-83
2022/02/09 12:53:55;;;;;;;3.40;0.95;;;11.70;28.70;;;;;;5163316;27;20282;-82
2022/02/09 12:56:25;;;;;;;3.00;1.08;;;11.60;28.00;;;;;;5164042;27;20715;-83
2022/02/09 12:59:04;;;;;;;3.88;1.35;;;11.70;28.30;;;;;;5165618;27;20305;-83
2022/02/09 13:01:42;;;;;;;2.40;1.00;;;11.70;29.60;;;;;;5163776;27;20262;-83
2022/02/09 13:04:10;;;;;;;3.20;1.10;;;11.70;29.30;;;;;;5149936;27;20832;-83
2022/02/09 13:06:44;;;;;;;6.50;1.45;;;11.60;29.70;;;;;;5150199;27;20202;-83
2022/02/09 13:09:17;;;;;;;2.47;1.25;;;11.50;29.40;;;;;;5167417;27;20236;-83
2022/02/09 13:11:44;;;;;;;1.10;0.98;;;11.70;30.70;;;;;;5164078;27;20203;-83
2022/02/09 13:14:15;;;;;;;1.80;1.00;;;11.80;30.10;;;;;;5166251;27;20309;-84
2022/02/09 13:16:46;;;;;;;1.33;0.95;;;11.90;29.90;;;;;;5166598;27;20190;-83
2022/02/09 13:19:39;;;;;;;3.65;1.33;;;12.00;30.20;;;;;;5176275;27;20233;-84
2022/02/09 13:54:51;;;;;;;1.75;0.82;;;12.00;31.20;;;;;;5179903;27;20240;-84
2022/02/09 14:12:07;;;;;;;1.92;0.98;;;11.80;33.50;;;;;;5094210;28;20224;-83
2022/02/09 14:17:46;;;;;;;1.23;1.10;;;11.80;33.00;;;;;;5096196;28;20292;-84
2022/02/09 14:32:31;;;;;;;1.02;0.85;;;11.70;34.00;;;;;;5102808;28;20227;-83
2022/02/09 14:51:37;;;;;;;1.00;0.95;;;11.60;33.50;;;;;;5063257;28;20208;-83
2022/02/09 14:54:14;;;;;;;1.40;1.30;;;11.60;33.20;;;;;;5066850;28;20240;-83
2022/02/09 14:56:55;;;;;;;1.40;1.17;;;11.60;33.90;;;;;;5079958;28;20211;-83
2022/02/09 14:59:33;;;;;;;1.20;1.10;;;11.60;34.50;;;;;;5079565;28;20224;-83
2022/02/09 15:02:05;;;;;;;1.83;1.20;;;11.50;34.10;;;;;;5080264;28;20255;-84
2022/02/09 15:04:39;;;;;;;1.10;1.00;;;11.40;34.90;;;;;;5071823;28;20296;-87
2022/02/09 15:09:52;;;;;;;2.03;1.08;;;11.30;34.40;;;;;;5083041;28;20229;-85
2022/02/09 15:12:27;;;;;;;2.92;1.30;;;11.40;34.80;;;;;;5068806;28;20201;-84
2022/02/09 15:15:10;;;;;;;1.10;1.00;;;11.40;34.50;;;;;;5079373;28;20221;-85
2022/02/09 15:17:49;;;;;;;3.55;1.20;;;11.40;34.00;;;;;;5064189;28;20301;-84
2022/02/09 15:23:03;;;;;;;1.48;1.27;;;11.10;35.20;;;;;;5066951;28;20205;-85
2022/02/09 15:25:34;;;;;;;1.42;1.20;;;10.90;36.40;;;;;;5065065;28;20316;-85
2022/02/09 15:28:04;;;;;;;7.15;1.45;;;10.80;37.20;;;;;;5064225;28;20194;-85
2022/02/09 15:30:44;;;;;;;3.42;1.40;;;10.70;37.50;;;;;;5062728;28;20240;-84
2022/02/09 15:33:12;;;;;;;3.30;1.30;;;10.70;38.10;;;;;;5062935;28;20224;-84
2022/02/09 15:35:41;;;;;;;1.92;1.20;;;10.60;39.00;;;;;;5060540;28;20225;-85
2022/02/09 15:38:13;;;;;;;1.20;1.10;;;10.60;39.40;;;;;;5058395;28;20190;-86
2022/02/09 15:40:52;;;;;;;2.53;0.90;;;10.50;39.90;;;;;;5059345;28;20605;-85
2022/02/09 15:43:44;;;;;;;2.45;1.10;;;10.40;39.00;;;;;;5062304;28;20234;-84
2022/02/09 15:57:36;;;;;;;3.25;1.60;;;10.00;42.60;;;;;;5058135;28;20324;-84
2022/02/09 16:05:43;;;;;;;2.95;1.35;;;9.70;48.10;;;;;;5060385;28;20227;-85
2022/02/09 16:11:03;;;;;;;1.65;1.33;;;9.50;47.90;;;;;;5059692;28;20257;-87
2022/02/09 16:16:42;;;;;;;1.50;1.40;;;9.30;48.60;;;;;;5063132;28;20204;-85
2022/02/09 16:22:02;;;;;;;3.28;2.00;;;9.10;52.40;;;;;;5065051;28;20194;-84
2022/02/09 16:24:43;;;;;;;4.90;1.90;;;8.90;54.20;;;;;;5060479;28;20234;-85
2022/02/09 16:38:37;;;;;;;2.22;1.52;;;8.20;59.40;;;;;;5064716;28;20206;-83
2022/02/09 16:46:38;;;;;;;1.92;1.52;;;7.90;63.60;;;;;;5059862;28;20200;-84
2022/02/09 16:49:25;;;;;;;1.73;1.50;;;7.90;64.20;;;;;;5049408;28;21051;-83
2022/02/09 16:51:58;;;;;;;6.32;2.30;;;7.80;66.70;;;;;;5053744;28;20204;-82
2022/02/09 16:54:34;;;;;;;3.75;1.80;;;7.80;67.30;;;;;;5050876;28;20232;-83
2022/02/09 16:57:20;;;;;;;7.50;1.73;;;7.70;67.50;;;;;;5051418;28;20186;-85
2022/02/09 17:19:00;;;;;;;7.28;2.25;;;7.20;73.40;;;;;;5056439;28;20253;-84
2022/02/09 17:21:31;;;;;;;11.15;2.60;;;7.10;75.20;;;;;;5052183;28;20202;-83
2022/02/09 17:24:02;;;;;;;4.68;3.00;;;7.10;75.80;;;;;;5057681;28;20281;-83
2022/02/09 17:26:29;;;;;;;7.55;3.00;;;7.00;76.40;;;;;;5081335;28;20663;-82
2022/02/09 17:29:01;;;;;;;6.82;2.20;;;6.90;77.80;;;;;;5080128;28;20241;-84
2022/02/09 17:31:36;;;;;;;14.88;8.23;;;6.90;78.00;;;;;;5104345;28;20193;-83
2022/02/09 17:37:08;;;;;;;5.43;2.33;;;6.80;78.00;;;;;;5066329;28;20565;-83
2022/02/09 17:53:31;;;;;;;10.17;2.63;;;6.40;79.80;;;;;;5065165;28;20204;-83
2022/02/09 17:56:02;;;;;;;8.15;2.25;;;6.30;80.60;;;;;;5065471;28;20236;-83
2022/02/09 17:58:38;;;;;;;4.63;2.85;;;6.30;81.20;;;;;;5073614;28;20204;-83
2022/02/09 18:01:06;;;;;;;6.53;2.93;;;6.20;81.40;;;;;;5070267;28;20217;-84
2022/02/09 18:03:33;;;;;;;8.10;3.23;;;6.10;82.00;;;;;;5071418;28;20244;-82
2022/02/09 18:06:11;;;;;;;3.97;2.80;;;6.10;83.10;;;;;;5068681;28;20225;-83
2022/02/09 18:08:48;;;;;;;9.80;4.60;;;6.00;83.70;;;;;;5078838;28;20241;-83
2022/02/09 18:11:26;;;;;;;15.80;6.33;;;6.00;84.10;;;;;;5080526;28;20197;-83
2022/02/09 18:14:23;;;;;;;10.70;6.10;;;6.00;84.40;;;;;;5074632;28;20254;-85
2022/02/09 18:25:17;;;;;;;10.53;5.53;;;5.70;85.50;;;;;;5077369;28;20244;-83
2022/02/09 18:28:04;;;;;;;12.50;7.13;;;5.70;85.30;;;;;;5068279;28;20266;-86
2022/02/09 18:30:41;;;;;;;11.80;6.10;;;5.70;85.60;;;;;;5067429;28;20221;-83
2022/02/09 18:33:24;;;;;;;12.03;6.17;;;5.70;85.90;;;;;;5069142;28;20197;-83
2022/02/09 18:44:17;;;;;;;13.73;6.03;;;5.50;87.50;;;;;;5075933;28;20684;-81
2022/02/09 18:47:04;;;;;;;9.63;4.90;;;5.40;89.20;;;;;;5077425;28;20189;-80
2022/02/09 18:58:41;;;;;;;17.33;6.53;;;5.20;89.10;;;;;;5068613;28;20249;-80
2022/02/09 19:03:36;;;;;;;14.13;5.30;;;5.00;90.30;;;;;;5071691;28;20593;-85
2022/02/09 19:06:17;;;;;;;15.40;5.67;;;5.00;90.40;;;;;;5077908;28;20255;-80
2022/02/09 19:08:59;;;;;;;14.70;5.90;;;5.00;90.50;;;;;;5068632;28;20686;-83
2022/02/09 19:14:23;;;;;;;10.80;5.67;;;4.90;90.60;;;;;;5075708;28;20460;-83
2022/02/09 19:16:58;;;;;;;15.43;6.20;;;4.90;90.60;;;;;;5067446;28;20212;-83
2022/02/09 19:30:47;;;;;;;8.63;5.43;;;4.70;91.20;;;;;;5065920;28;20225;-80
2022/02/09 19:47:17;;;;;;;9.30;5.73;;;4.40;91.60;;;;;;5072626;28;20314;-80
2022/02/09 19:50:08;;;;;;;13.00;5.90;;;4.40;91.60;;;;;;5073083;28;20255;-80
2022/02/09 19:52:51;;;;;;;9.53;5.47;;;4.30;91.70;;;;;;5073304;28;20703;-80
2022/02/09 19:55:30;;;;;;;12.27;5.83;;;4.30;91.80;;;;;;5075620;28;20217;-83
2022/02/09 19:58:09;;;;;;;9.83;5.80;;;4.20;91.70;;;;;;5072451;28;20237;-88
2022/02/09 20:00:37;;;;;;;11.87;5.93;;;4.10;92.00;;;;;;5079360;28;20675;-83
2022/02/09 20:03:08;;;;;;;13.57;6.60;;;4.00;92.20;;;;;;5083007;28;20188;-84
2022/02/09 20:05:36;;;;;;;9.90;6.17;;;4.00;92.20;;;;;;5083875;28;20236;-86
2022/02/09 20:08:09;;;;;;;15.80;6.67;;;3.90;92.20;;;;;;5085283;28;20250;-84
2022/02/09 20:11:28;;;;;;;10.53;6.30;;;4.00;92.20;;;;;;5081828;28;20252;-83
2022/02/09 20:14:04;;;;;;;13.90;6.90;;;3.90;92.20;;;;;;5075475;28;20308;-83
2022/02/09 20:16:32;;;;;;;15.80;6.53;;;3.80;92.40;;;;;;5072580;28;20192;-85
2022/02/09 20:19:01;;;;;;;8.77;6.40;;;3.70;92.80;;;;;;5070595;28;20276;-84
2022/02/09 20:21:29;;;;;;;12.17;6.33;;;3.60;92.90;;;;;;5071092;28;20251;-82
2022/02/09 20:23:56;;;;;;;9.50;5.67;;;3.60;92.90;;;;;;5080538;28;20266;-82
2022/02/09 20:26:26;;;;;;;11.77;6.33;;;3.60;93.00;;;;;;5073891;28;20247;-83
2022/02/09 20:28:57;;;;;;;11.30;5.97;;;3.60;92.80;;;;;;5085685;28;20224;-83
2022/02/09 20:31:28;;;;;;;9.40;5.90;;;3.50;92.80;;;;;;5076818;28;20204;-84
2022/02/09 20:33:59;;;;;;;11.47;6.60;;;3.40;92.90;;;;;;5074374;28;20312;-83
2022/02/09 20:36:29;;;;;;;13.17;6.50;;;3.40;93.20;;;;;;5071328;28;20213;-84
2022/02/09 20:38:58;;;;;;;10.60;6.33;;;3.30;93.40;;;;;;5071565;28;20233;-84
2022/02/09 20:41:25;;;;;;;13.20;7.03;;;3.30;93.20;;;;;;5078980;28;20219;-82
2022/02/09 20:44:04;;;;;;;14.10;8.60;;;3.30;93.10;;;;;;5079936;28;20316;-85
2022/02/09 20:46:33;;;;;;;15.73;9.00;;;3.40;93.10;;;;;;5072802;28;20235;-83
2022/02/09 20:49:00;;;;;;;13.93;9.17;;;3.40;93.00;;;;;;5080116;28;20229;-84
2022/02/09 20:51:29;;;;;;;15.00;8.70;;;3.30;93.00;;;;;;5078840;28;20192;-83
2022/02/09 20:53:57;;;;;;;13.50;7.80;;;3.30;92.90;;;;;;5083109;28;20221;-85
2022/02/09 20:56:25;;;;;;;13.93;8.30;;;3.30;92.90;;;;;;5069252;28;20201;-85
2022/02/09 20:58:59;;;;;;;14.93;7.63;;;3.20;92.80;;;;;;5082292;28;20289;-86
2022/02/09 21:01:33;;;;;;;12.33;7.17;;;3.10;93.20;;;;;;5075593;28;20199;-82
2022/02/09 21:04:08;;;;;;;13.47;6.70;;;2.90;93.50;;;;;;5082914;28;20246;-82
2022/02/09 21:06:52;;;;;;;13.07;6.67;;;2.90;93.70;;;;;;5081497;28;20225;-83
2022/02/09 21:09:27;;;;;;;12.23;6.90;;;2.90;93.60;;;;;;5080020;28;20224;-83
2022/02/09 21:12:03;;;;;;;8.87;6.10;;;2.90;93.60;;;;;;5082405;28;20704;-82
2022/02/09 21:14:50;;;;;;;10.27;6.37;;;2.80;93.60;;;;;;5079606;28;20213;-82
2022/02/09 21:17:31;;;;;;;12.60;6.57;;;2.70;93.70;;;;;;5076787;28;20237;-82
2022/02/09 21:20:25;;;;;;;14.07;6.63;;;2.70;94.00;;;;;;5083388;28;20259;-83
2022/02/09 21:26:19;;;;;;;10.07;6.47;;;2.70;94.00;;;;;;5075156;28;20260;-83
2022/02/09 21:32:08;;;;;;;10.03;6.23;;;2.80;93.70;;;;;;5082596;28;20291;-83
2022/02/09 21:46:07;;;;;;;11.00;6.53;;;2.70;93.70;;;;;;5084299;28;20322;-83
2022/02/09 21:54:25;;;;;;;9.37;5.60;;;2.80;93.30;;;;;;5080709;28;20232;-82
2022/02/09 21:56:57;;;;;;;12.33;6.07;;;2.80;93.00;;;;;;5085734;28;20208;-84
2022/02/09 22:16:31;;;;;;;8.97;5.10;;;2.50;93.00;;;;;;5086853;28;20235;-83
2022/02/09 22:19:31;;;;;;;15.23;7.30;;;2.40;93.00;;;;;;5083132;28;20227;-82
2022/02/09 22:22:14;;;;;;;13.87;7.27;;;2.40;93.10;;;;;;5093298;28;20197;-85
2022/02/09 22:27:35;;;;;;;18.87;7.87;;;2.40;93.00;;;;;;5070499;28;20199;-83
2022/02/09 22:30:52;;;;;;;11.93;6.30;;;2.40;92.90;;;;;;5067340;28;20237;-88
2022/02/09 22:34:13;;;;;;;10.40;5.40;;;2.40;92.90;;;;;;5067997;28;20200;-84
2022/02/09 22:47:58;;;;;;;12.07;6.17;;;2.20;92.80;;;;;;5065868;28;20614;-83
2022/02/09 22:50:39;;;;;;;15.60;7.80;;;2.20;92.90;;;;;;5069699;28;20229;-82
2022/02/09 22:55:50;;;;;;;14.47;6.80;;;2.10;92.90;;;;;;5081976;28;20295;-81
2022/02/09 22:58:17;;;;;;;16.37;6.40;;;2.10;93.10;;;;;;5092674;28;20569;-82
2022/02/09 23:00:54;;;;;;;12.07;5.27;;;2.10;93.00;;;;;;5084310;28;20299;-83
2022/02/09 23:03:29;;;;;;;11.03;4.10;;;2.00;93.00;;;;;;5088451;28;20727;-81
2022/02/09 23:11:47;;;;;;;9.73;4.10;;;1.90;93.30;;;;;;5087937;28;20193;-83
2022/02/09 23:23:18;;;;;;;6.03;2.80;;;1.90;92.70;;;;;;5087146;28;20197;-83
